Pagina principale
METAR-TAF:

METAR-TAF

Aeroporti :

Aeroporto di Lamezia Terme

Lamezia Terme, Italia

latitudine: 38-54N, longitudine: 016-15E, altezza: 15 m

Osservazione

Il bollettino è stato emesso 25 minuti fa, alle 16:50 UTC
Vento 10 kt da ovest/sud-ovest
Temperature 21°C
Umidità 60%
Pressione 1014 hPa
Visibilità 10 km o più

METAR: LICA 311650Z AUTO 25010KT 9999 NCD 21/13 Q1014

Ora: 19:15 (17:15 UTC)

Previsione

Il bollettino è stato emesso 6 ore e 15 minuti fa, alle 11:00 UTC
Previsione valida dal 31 alle 12 UTC al 01 alle 12 UTC
Vento 10 kt da ovest
Visibilità 10 km o più
Nubi sparse ad un'altezza di 3000 ft
Temporaneamente
dal 31 alle 12 UTC al 31 alle 16 UTC
rovesci di pioggia
Evoluzione graduale
dal 31 alle 20 UTC al 31 alle 22 UTC
Vento 4 kt da direzioni variabili
Temporaneamente
dal 01 alle 06 UTC al 01 alle 12 UTC
temporale, pioggia

TAF: LICA 311100Z 3112/0112 27010KT 9999 SCT030 TEMPO 3112/3116 SHRA BECMG 3120/3122 VRB04KT TEMPO 0106/0112 TSRA

Osservazioni e previsioni meteorologiche di più di 4000 aeroporti (messaggi METAR e TAF).

Le stazioni disponibili sono rappresentate dai dischi gialli e rossi sulla carta.

Puntare il mouse per vedere il nome della stazione.

Clicca sopra per visualizzare le osservazioni e previsioni meteorologiche.

Per cambiare la mappa : fare clic sui pulsanti verdi con una croce nera per ingrandire, il pulsante verde con un trattino per diminuire, o sulla freccia verde per le mappe adiacenti.


METAR-TAF: